Anedigmi — 2BHF3 — position and weather

sailwx.info

Track history (hours):
 
Tides and Currents Weather Stations Pressure Air Temp Water Temp Dewpoint Dewpoint Depression Visibility Wind Speed Wind Dir Waves Ship Positions

Anedigmi

Last reported at 2014-Jul-27 14:14 UTC. Time now 2014-Jul-28 14:28 UTC.
Position N 43°44' E 007°27'.

Length 50 m; draft 3.1 m.

Type: Pleasure craft. MMSI: 235066107.

Date/timePositionNaut miles runAvg speedWind from/ knotsBaromVisibWave heightAir tempDewpointWater temp
2014-Jul-27 14:14N 43°44' E 007°27'4 0.2
2014-Jul-26 15:33N 43°43' E 007°22'0 0.0
2014-Jul-26 13:31N 43°43' E 007°22'0 0.0
2014-Jul-26 08:25N 43°43' E 007°22'1 0.8
2014-Jul-26 07:33N 43°43' E 007°22'1 0.1
2014-Jul-25 15:34N 43°42' E 007°23'1312.6
2014-Jul-25 14:34N 43°35' E 007°08'0 0.1
2014-Jul-25 13:26N 43°35' E 007°08'0 0.0
2014-Jul-25 12:32N 43°35' E 007°08'0 0.0
2014-Jul-25 11:32N 43°35' E 007°08'0 0.0
2014-Jul-25 10:32N 43°35' E 007°08'0 0.0
2014-Jul-25 09:20N 43°35' E 007°08'0 0.2
2014-Jul-25 08:33N 43°35' E 007°08'6 5.9
2014-Jul-25 07:33N 43°32' E 007°01'1 0.1
2014-Jul-24 14:18N 43°33' E 007°01'3 3.5
2014-Jul-24 13:33N 43°31' E 007°04'0 0.0
2014-Jul-24 12:30N 43°31' E 007°04'0 0.0
2014-Jul-24 11:24N 43°31' E 007°04'0 0.0
2014-Jul-24 10:30N 43°31' E 007°04'0 0.0
2014-Jul-24 09:33N 43°31' E 007°04'10 9.7
2014-Jul-24 08:33N 43°25' E 006°54'1413.6
2014-Jul-24 07:33N 43°17' E 006°39'1 0.7
2014-Jul-24 06:28N 43°16' E 006°38'0 0.0
2014-Jul-24 05:22N 43°16' E 006°38'0 0.0
2014-Jul-24 04:28N 43°16' E 006°38'0 0.0
2014-Jul-24 02:22N 43°16' E 006°38'0 0.0
2014-Jul-24 01:25N 43°16' E 006°38'0 0.0
2014-Jul-24 00:19N 43°16' E 006°38'0 0.0
2014-Jul-23 23:28N 43°16' E 006°38'0 0.0
2014-Jul-23 22:31N 43°16' E 006°38'0 0.0
2014-Jul-23 21:28N 43°16' E 006°38'0 0.0
2014-Jul-23 20:28N 43°16' E 006°38'0 0.0
2014-Jul-23 19:28N 43°16' E 006°38'0 0.0
2014-Jul-23 18:19N 43°16' E 006°38'0 0.0
2014-Jul-23 16:28N 43°16' E 006°38'0 0.0
2014-Jul-23 15:04N 43°16' E 006°38'0 0.4
2014-Jul-23 14:33N 43°16' E 006°38'3 2.7
2014-Jul-23 13:28N 43°14' E 006°40'0 0.0
2014-Jul-23 12:31N 43°14' E 006°40'0 0.0
2014-Jul-23 11:10N 43°14' E 006°40'3 4.0
2014-Jul-23 10:32N 43°15' E 006°44'1414.4
2014-Jul-23 09:34N 43°25' E 006°58'1514.5
2014-Jul-23 08:33N 43°34' E 007°13'  
2014-Jul-19 08:24N 43°44' E 007°26'5 0.2
2014-Jul-18 09:04N 43°42' E 007°20'2 3.9
2014-Jul-18 08:32N 43°40' E 007°19'6 4.5
2014-Jul-18 07:10N 43°39' E 007°11'0 0.6
2014-Jul-18 06:33N 43°39' E 007°11'1212.3
2014-Jul-18 05:33N 43°28' E 007°01'1313.2
2014-Jul-18 04:33N 43°21' E 006°47'8 1.6
2014-Jul-17 23:23N 43°16' E 006°37'0 0.0
2014-Jul-17 22:08N 43°16' E 006°37'0 0.0
2014-Jul-17 20:26N 43°16' E 006°37'0 0.0
2014-Jul-17 19:17N 43°16' E 006°37'0 0.1
2014-Jul-17 17:29N 43°16' E 006°37'4 4.7
2014-Jul-17 16:32N 43°16' E 006°43'2 1.2
2014-Jul-17 14:33N 43°14' E 006°40'  
Track history (hours):
 
Tides and Currents Weather Stations Pressure Air Temp Water Temp Dewpoint Dewpoint Depression Visibility Wind Speed Wind Dir Waves Ship Positions

Anedigmi

Last reported at 2014-Jul-27 14:14 UTC. Time now 2014-Jul-28 14:28 UTC.
Position N 43°44' E 007°27'.

Length 50 m; draft 3.1 m.

Type: Pleasure craft. MMSI: 235066107.

Date/timePositionNaut miles runAvg speedWind from/ knotsBaromVisibWave heightAir tempDewpointWater temp
2014-Jul-27 14:14N 43°44' E 007°27'4 0.2
2014-Jul-26 15:33N 43°43' E 007°22'0 0.0
2014-Jul-26 13:31N 43°43' E 007°22'0 0.0
2014-Jul-26 08:25N 43°43' E 007°22'1 0.8
2014-Jul-26 07:33N 43°43' E 007°22'1 0.1
2014-Jul-25 15:34N 43°42' E 007°23'1312.6
2014-Jul-25 14:34N 43°35' E 007°08'0 0.1
2014-Jul-25 13:26N 43°35' E 007°08'0 0.0
2014-Jul-25 12:32N 43°35' E 007°08'0 0.0
2014-Jul-25 11:32N 43°35' E 007°08'0 0.0
2014-Jul-25 10:32N 43°35' E 007°08'0 0.0
2014-Jul-25 09:20N 43°35' E 007°08'0 0.2
2014-Jul-25 08:33N 43°35' E 007°08'6 5.9
2014-Jul-25 07:33N 43°32' E 007°01'1 0.1
2014-Jul-24 14:18N 43°33' E 007°01'3 3.5
2014-Jul-24 13:33N 43°31' E 007°04'0 0.0
2014-Jul-24 12:30N 43°31' E 007°04'0 0.0
2014-Jul-24 11:24N 43°31' E 007°04'0 0.0
2014-Jul-24 10:30N 43°31' E 007°04'0 0.0
2014-Jul-24 09:33N 43°31' E 007°04'10 9.7
2014-Jul-24 08:33N 43°25' E 006°54'1413.6
2014-Jul-24 07:33N 43°17' E 006°39'1 0.7
2014-Jul-24 06:28N 43°16' E 006°38'0 0.0
2014-Jul-24 05:22N 43°16' E 006°38'0 0.0
2014-Jul-24 04:28N 43°16' E 006°38'0 0.0
2014-Jul-24 02:22N 43°16' E 006°38'0 0.0
2014-Jul-24 01:25N 43°16' E 006°38'0 0.0
2014-Jul-24 00:19N 43°16' E 006°38'0 0.0
2014-Jul-23 23:28N 43°16' E 006°38'0 0.0
2014-Jul-23 22:31N 43°16' E 006°38'0 0.0
2014-Jul-23 21:28N 43°16' E 006°38'0 0.0
2014-Jul-23 20:28N 43°16' E 006°38'0 0.0
2014-Jul-23 19:28N 43°16' E 006°38'0 0.0
2014-Jul-23 18:19N 43°16' E 006°38'0 0.0
2014-Jul-23 16:28N 43°16' E 006°38'0 0.0
2014-Jul-23 15:04N 43°16' E 006°38'0 0.4
2014-Jul-23 14:33N 43°16' E 006°38'3 2.7
2014-Jul-23 13:28N 43°14' E 006°40'0 0.0
2014-Jul-23 12:31N 43°14' E 006°40'0 0.0
2014-Jul-23 11:10N 43°14' E 006°40'3 4.0
2014-Jul-23 10:32N 43°15' E 006°44'1414.4
2014-Jul-23 09:34N 43°25' E 006°58'1514.5
2014-Jul-23 08:33N 43°34' E 007°13'  
2014-Jul-19 08:24N 43°44' E 007°26'5 0.2
2014-Jul-18 09:04N 43°42' E 007°20'2 3.9
2014-Jul-18 08:32N 43°40' E 007°19'6 4.5
2014-Jul-18 07:10N 43°39' E 007°11'0 0.6
2014-Jul-18 06:33N 43°39' E 007°11'1212.3
2014-Jul-18 05:33N 43°28' E 007°01'1313.2
2014-Jul-18 04:33N 43°21' E 006°47'8 1.6
2014-Jul-17 23:23N 43°16' E 006°37'0 0.0
2014-Jul-17 22:08N 43°16' E 006°37'0 0.0
2014-Jul-17 20:26N 43°16' E 006°37'0 0.0
2014-Jul-17 19:17N 43°16' E 006°37'0 0.1
2014-Jul-17 17:29N 43°16' E 006°37'4 4.7
2014-Jul-17 16:32N 43°16' E 006°43'2 1.2
2014-Jul-17 14:33N 43°14' E 006°40'  

Dump ship's entire track history